Time;durP1;ratioP1;P1;durP2;ratioP2;P2;SDS_P1;SDS_P2;PMS_P1;PMS_P2;Temp;Humidity;BMP_temperature;BMP_pressure;BME280_temperature;BME280_humidity;BME280_pressure;Samples;Min_cycle;Max_cycle;Signal;HPM_P1;HPM_P2
2020/12/15 00:01:45;;;;;;;1.30;0.90;;;21.60;48.70;;;;;;5110878;27;20031;-66
2020/12/15 00:04:11;;;;;;;2.30;1.30;;;21.60;48.70;;;;;;5105806;27;20027;-66
2020/12/15 00:06:36;;;;;;;1.98;1.10;;;21.60;48.70;;;;;;5101859;27;20031;-66
2020/12/15 00:09:02;;;;;;;2.55;1.27;;;21.60;48.70;;;;;;5124368;27;20047;-66
2020/12/15 00:11:27;;;;;;;2.97;1.30;;;21.60;48.70;;;;;;5124159;27;20027;-66
2020/12/15 00:13:53;;;;;;;2.17;1.20;;;21.50;48.60;;;;;;5106395;27;20046;-66
2020/12/15 00:16:19;;;;;;;2.00;1.17;;;21.50;48.60;;;;;;5093176;27;20061;-66
2020/12/15 00:18:44;;;;;;;2.38;1.13;;;21.50;48.70;;;;;;5110954;27;20343;-66
2020/12/15 00:21:10;;;;;;;2.95;1.30;;;21.50;48.70;;;;;;5114403;28;20432;-66
2020/12/15 00:23:35;;;;;;;3.00;1.30;;;21.50;48.70;;;;;;5119612;28;20035;-66
2020/12/15 00:26:02;;;;;;;2.00;1.10;;;21.50;48.70;;;;;;5123509;28;20344;-66
2020/12/15 00:28:27;;;;;;;2.58;1.10;;;21.50;48.70;;;;;;5123492;28;20046;-66
2020/12/15 00:30:53;;;;;;;2.25;1.30;;;21.50;48.70;;;;;;5101885;28;20114;-66
2020/12/15 00:33:19;;;;;;;1.30;0.98;;;21.50;48.70;;;;;;5106009;28;20085;-67
2020/12/15 00:35:45;;;;;;;1.85;1.17;;;21.40;48.70;;;;;;5113926;27;20032;-67
2020/12/15 00:38:10;;;;;;;2.22;1.10;;;21.50;48.80;;;;;;5122350;28;20434;-66
2020/12/15 00:40:36;;;;;;;2.47;1.30;;;21.40;48.70;;;;;;5121767;28;20567;-66
2020/12/15 00:43:01;;;;;;;3.42;1.17;;;21.40;48.70;;;;;;5105709;28;20138;-66
2020/12/15 00:45:27;;;;;;;2.20;1.27;;;21.40;48.70;;;;;;5119590;27;20081;-66
2020/12/15 00:47:52;;;;;;;1.75;1.10;;;21.40;48.70;;;;;;5121554;27;20494;-66
2020/12/15 00:50:18;;;;;;;1.95;1.10;;;21.40;48.70;;;;;;5137894;27;20244;-66
2020/12/15 00:52:44;;;;;;;2.20;1.20;;;21.40;48.70;;;;;;5124321;27;20035;-66
2020/12/15 00:55:09;;;;;;;1.88;1.17;;;21.40;48.70;;;;;;5105988;27;20031;-66
2020/12/15 00:57:35;;;;;;;2.13;1.13;;;21.30;48.70;;;;;;5119038;27;20027;-66
2020/12/15 01:00:00;;;;;;;2.70;1.30;;;21.30;48.70;;;;;;5128041;27;20323;-67
2020/12/15 01:02:26;;;;;;;2.30;1.23;;;21.30;48.70;;;;;;5108312;27;20312;-66
2020/12/15 01:04:52;;;;;;;2.00;1.10;;;21.30;48.70;;;;;;5118527;27;20441;-66
2020/12/15 01:07:18;;;;;;;2.10;1.20;;;21.30;48.70;;;;;;5126704;27;20091;-66
2020/12/15 01:09:43;;;;;;;2.30;1.10;;;21.30;48.70;;;;;;5125236;27;20023;-67
2020/12/15 01:12:13;;;;;;;1.88;1.10;;;21.30;48.70;;;;;;5125704;27;20070;-67
2020/12/15 01:14:39;;;;;;;1.42;1.02;;;21.30;48.80;;;;;;5126244;27;20027;-66
2020/12/15 01:17:08;;;;;;;2.40;1.10;;;21.30;48.70;;;;;;5125535;27;20019;-66
2020/12/15 01:19:34;;;;;;;1.55;1.02;;;21.20;49.20;;;;;;5128012;27;20042;-66
2020/12/15 01:22:00;;;;;;;1.75;1.10;;;21.20;48.70;;;;;;5123080;27;20362;-66
2020/12/15 01:24:26;;;;;;;1.77;0.90;;;21.30;48.80;;;;;;5107074;27;20077;-66
2020/12/15 01:26:52;;;;;;;1.67;1.20;;;21.20;48.80;;;;;;5107410;27;20529;-66
2020/12/15 01:29:18;;;;;;;2.10;1.10;;;21.20;48.80;;;;;;5127297;27;20027;-66
2020/12/15 01:31:43;;;;;;;2.92;1.23;;;21.30;48.80;;;;;;5118177;27;20084;-66
2020/12/15 01:34:09;;;;;;;1.88;1.08;;;21.20;48.80;;;;;;5113961;27;20027;-66
2020/12/15 01:36:35;;;;;;;1.90;1.10;;;21.20;48.80;;;;;;5106059;27;20671;-66
2020/12/15 01:39:00;;;;;;;2.03;1.20;;;21.20;48.80;;;;;;5111708;27;20357;-66
2020/12/15 01:41:27;;;;;;;2.35;1.15;;;21.20;48.80;;;;;;5123611;27;20168;-66
2020/12/15 01:43:54;;;;;;;1.63;1.10;;;21.20;48.80;;;;;;5114817;27;20107;-66
2020/12/15 01:46:19;;;;;;;2.33;1.10;;;21.20;48.80;;;;;;5116000;27;20104;-67
2020/12/15 01:48:45;;;;;;;1.73;1.08;;;21.20;48.80;;;;;;5105769;27;20118;-67
2020/12/15 01:51:12;;;;;;;1.92;1.20;;;21.20;48.80;;;;;;5116359;27;20036;-66
2020/12/15 01:53:38;;;;;;;2.83;1.20;;;21.10;48.80;;;;;;5127788;27;20023;-66
2020/12/15 01:56:03;;;;;;;2.55;1.00;;;21.10;48.90;;;;;;5104999;27;20066;-67
2020/12/15 01:58:29;;;;;;;2.08;1.30;;;21.10;48.90;;;;;;5121595;27;20035;-67
2020/12/15 02:00:55;;;;;;;1.55;1.02;;;21.10;48.90;;;;;;5119596;27;20031;-67
2020/12/15 02:03:21;;;;;;;1.73;1.10;;;21.10;48.90;;;;;;5123803;27;20462;-66
2020/12/15 02:05:46;;;;;;;1.63;1.02;;;21.10;48.90;;;;;;5118631;27;20027;-66
2020/12/15 02:08:12;;;;;;;1.75;1.10;;;21.10;48.90;;;;;;5125860;27;20498;-66
2020/12/15 02:10:38;;;;;;;2.00;1.02;;;21.10;48.90;;;;;;5128550;27;20023;-66
2020/12/15 02:13:04;;;;;;;2.33;1.33;;;21.10;48.90;;;;;;5102777;27;20028;-67
2020/12/15 02:15:29;;;;;;;2.25;1.10;;;21.00;48.90;;;;;;5114537;27;20098;-67
2020/12/15 02:17:55;;;;;;;1.98;1.00;;;21.10;48.90;;;;;;5106939;27;20026;-66
2020/12/15 02:20:21;;;;;;;1.48;0.93;;;21.10;49.00;;;;;;5109062;27;20419;-67
2020/12/15 02:22:46;;;;;;;2.28;1.20;;;21.10;49.00;;;;;;5103442;28;20670;-66
2020/12/15 02:25:12;;;;;;;1.50;0.90;;;21.10;48.90;;;;;;5114383;27;20043;-66
2020/12/15 02:27:37;;;;;;;1.67;0.98;;;21.00;48.90;;;;;;5126200;27;20055;-66
2020/12/15 02:30:07;;;;;;;1.30;0.93;;;21.00;48.90;;;;;;5123516;27;20038;-66
2020/12/15 02:32:36;;;;;;;1.45;1.00;;;21.00;49.00;;;;;;5105988;27;20023;-66
2020/12/15 02:35:03;;;;;;;2.53;1.13;;;21.00;49.00;;;;;;5106041;27;20043;-67
2020/12/15 02:37:29;;;;;;;2.85;1.08;;;21.00;49.00;;;;;;5110888;27;20130;-66
2020/12/15 02:40:03;;;;;;;1.40;1.00;;;21.00;49.00;;;;;;5136736;27;20138;-66
2020/12/15 02:42:29;;;;;;;2.55;1.10;;;20.90;48.90;;;;;;5118277;27;20049;-66
2020/12/15 02:44:56;;;;;;;1.15;0.88;;;21.00;49.00;;;;;;5126396;27;20381;-66
2020/12/15 02:47:21;;;;;;;1.85;1.20;;;21.00;49.00;;;;;;5091540;27;20043;-66
2020/12/15 02:49:47;;;;;;;1.73;1.10;;;20.90;49.00;;;;;;5132770;27;20063;-66
2020/12/15 02:52:13;;;;;;;1.88;1.20;;;21.00;49.10;;;;;;5112585;27;20058;-66
2020/12/15 02:54:40;;;;;;;1.92;1.25;;;20.90;49.00;;;;;;5097782;28;20416;-66
2020/12/15 02:57:05;;;;;;;1.92;1.00;;;20.90;49.00;;;;;;5109714;27;20019;-67
2020/12/15 02:59:31;;;;;;;1.45;1.00;;;20.90;49.00;;;;;;5106972;27;20050;-66
2020/12/15 03:01:57;;;;;;;1.40;0.98;;;20.90;49.00;;;;;;5110198;27;20058;-66
2020/12/15 03:04:22;;;;;;;1.30;1.10;;;20.90;49.10;;;;;;5106941;27;20483;-66
2020/12/15 03:06:48;;;;;;;1.92;1.20;;;20.90;49.00;;;;;;5117612;27;20065;-66
2020/12/15 03:09:14;;;;;;;1.50;1.00;;;20.90;49.10;;;;;;5126254;27;20108;-67
2020/12/15 03:11:39;;;;;;;1.70;1.15;;;20.90;49.10;;;;;;5120616;27;20089;-67
2020/12/15 03:14:05;;;;;;;1.65;1.10;;;20.90;49.10;;;;;;5115055;27;20413;-66
2020/12/15 03:16:31;;;;;;;1.63;1.00;;;20.80;49.10;;;;;;5112355;27;20556;-66
2020/12/15 03:18:57;;;;;;;2.05;1.10;;;20.80;49.10;;;;;;5112140;27;20424;-66
2020/12/15 03:21:23;;;;;;;1.90;1.10;;;20.80;49.10;;;;;;5101802;28;20131;-66
2020/12/15 03:23:50;;;;;;;1.58;1.10;;;20.80;49.10;;;;;;5103382;27;20374;-66
2020/12/15 03:26:16;;;;;;;2.00;1.10;;;20.80;49.10;;;;;;5126072;27;20360;-66
2020/12/15 03:28:42;;;;;;;1.25;0.93;;;20.80;49.10;;;;;;5105029;27;20034;-66
2020/12/15 03:31:07;;;;;;;1.58;1.00;;;20.80;49.10;;;;;;5119190;27;20088;-67
2020/12/15 03:33:33;;;;;;;1.95;1.10;;;20.80;49.10;;;;;;5111645;27;20137;-66
2020/12/15 03:35:58;;;;;;;1.45;1.00;;;20.80;49.10;;;;;;5129432;27;20106;-66
2020/12/15 03:38:24;;;;;;;1.45;1.00;;;20.80;49.20;;;;;;5123320;27;20040;-66
2020/12/15 03:40:50;;;;;;;1.75;1.20;;;20.80;49.20;;;;;;5119472;27;20087;-67
2020/12/15 03:43:15;;;;;;;1.33;1.00;;;20.80;49.20;;;;;;5113225;27;20023;-67
2020/12/15 03:45:43;;;;;;;1.50;1.05;;;20.80;49.20;;;;;;5114578;27;20070;-66
2020/12/15 03:48:13;;;;;;;1.77;1.20;;;20.70;49.20;;;;;;5119263;27;20096;-66
2020/12/15 03:50:39;;;;;;;0.93;0.80;;;20.80;49.20;;;;;;5115206;27;20016;-66
2020/12/15 03:53:05;;;;;;;1.70;1.20;;;20.80;49.20;;;;;;5104758;27;20042;-66
2020/12/15 03:55:30;;;;;;;1.40;1.00;;;20.80;49.20;;;;;;5123197;27;20871;-66
2020/12/15 03:57:56;;;;;;;1.10;1.00;;;20.80;49.20;;;;;;5123206;27;20031;-66
2020/12/15 04:00:22;;;;;;;1.98;1.17;;;20.70;49.20;;;;;;5102141;27;20127;-66
2020/12/15 04:02:48;;;;;;;1.52;1.10;;;20.70;49.20;;;;;;5104126;28;20106;-66
2020/12/15 04:05:14;;;;;;;2.50;0.90;;;20.70;49.20;;;;;;5126399;27;20146;-67
2020/12/15 04:07:41;;;;;;;1.85;1.10;;;20.70;49.10;;;;;;5120663;27;20097;-66
2020/12/15 04:10:07;;;;;;;1.35;1.00;;;20.70;49.20;;;;;;5118112;27;20045;-66
2020/12/15 04:12:33;;;;;;;1.38;0.90;;;20.70;49.20;;;;;;5118060;27;20138;-66
2020/12/15 04:14:58;;;;;;;1.88;1.20;;;20.70;49.20;;;;;;5122014;27;20532;-66
2020/12/15 04:17:24;;;;;;;1.48;1.10;;;20.70;49.20;;;;;;5105744;27;20039;-66
2020/12/15 04:19:50;;;;;;;1.40;0.98;;;20.70;49.20;;;;;;5110544;27;20030;-66
2020/12/15 04:22:15;;;;;;;1.60;1.10;;;20.70;49.20;;;;;;5112922;27;20016;-66
2020/12/15 04:24:41;;;;;;;1.50;1.05;;;20.70;49.20;;;;;;5113140;27;20093;-66
2020/12/15 04:27:07;;;;;;;2.13;1.10;;;20.70;49.20;;;;;;5119739;28;20041;-66
2020/12/15 04:29:32;;;;;;;1.50;0.90;;;20.70;49.20;;;;;;5118261;28;20063;-67
2020/12/15 04:31:58;;;;;;;2.00;1.05;;;20.60;49.20;;;;;;5116117;27;20130;-66
2020/12/15 04:34:24;;;;;;;1.50;1.00;;;20.70;49.20;;;;;;5095085;28;20123;-66
2020/12/15 04:36:50;;;;;;;1.65;1.10;;;20.60;49.20;;;;;;5123549;28;20087;-66
2020/12/15 04:39:15;;;;;;;1.75;0.90;;;20.60;49.20;;;;;;5124480;28;20050;-66
2020/12/15 04:41:41;;;;;;;1.20;0.90;;;20.60;49.10;;;;;;5110928;28;20573;-66
2020/12/15 04:44:09;;;;;;;1.55;1.00;;;20.60;49.20;;;;;;5118240;28;20030;-66
2020/12/15 04:46:46;;;;;;;1.85;1.00;;;20.60;49.20;;;;;;5113362;28;20441;-66
2020/12/15 04:49:20;;;;;;;1.58;1.00;;;20.60;49.20;;;;;;5124342;28;20126;-66
2020/12/15 04:52:05;;;;;;;1.02;0.85;;;20.60;49.20;;;;;;5098687;28;20042;-66
2020/12/15 04:54:33;;;;;;;1.40;1.02;;;20.60;49.20;;;;;;5132014;27;20034;-66
2020/12/15 04:57:00;;;;;;;1.40;1.00;;;20.60;49.20;;;;;;5124623;27;20023;-67
2020/12/15 04:59:34;;;;;;;1.42;1.10;;;20.60;49.20;;;;;;5146076;27;20042;-66
2020/12/15 05:02:05;;;;;;;1.42;1.00;;;20.60;49.20;;;;;;5107342;27;20112;-66
2020/12/15 05:04:41;;;;;;;1.40;1.00;;;20.60;49.20;;;;;;5120893;27;20023;-66
2020/12/15 05:07:08;;;;;;;1.23;0.90;;;20.60;49.20;;;;;;5104936;28;20167;-66
2020/12/15 05:09:35;;;;;;;1.52;1.00;;;20.60;49.20;;;;;;5128373;27;20031;-67
2020/12/15 05:12:01;;;;;;;1.27;0.85;;;20.60;49.20;;;;;;5099767;28;20111;-64
2020/12/15 05:14:28;;;;;;;1.50;0.93;;;20.60;49.20;;;;;;5121925;27;20046;-64
2020/12/15 05:16:54;;;;;;;1.10;0.80;;;20.60;49.20;;;;;;5111977;28;20599;-64
2020/12/15 05:19:20;;;;;;;1.77;1.10;;;20.60;49.20;;;;;;5108447;28;20146;-65
2020/12/15 05:21:59;;;;;;;1.42;1.02;;;20.60;49.20;;;;;;5118044;28;20099;-64
2020/12/15 05:24:27;;;;;;;1.58;1.00;;;20.60;49.30;;;;;;5113779;28;20027;-64
2020/12/15 05:26:56;;;;;;;1.08;0.90;;;20.60;49.30;;;;;;5120388;27;20062;-63
2020/12/15 05:29:22;;;;;;;1.77;1.10;;;20.60;49.30;;;;;;5103253;28;20044;-64
2020/12/15 05:31:49;;;;;;;1.20;0.88;;;20.60;49.30;;;;;;5105956;28;20020;-64
2020/12/15 05:34:21;;;;;;;1.30;0.95;;;20.60;49.30;;;;;;5114547;28;20091;-65
2020/12/15 05:36:58;;;;;;;1.27;0.90;;;20.60;49.30;;;;;;5117233;27;20050;-65
2020/12/15 05:39:25;;;;;;;1.40;0.90;;;20.50;49.30;;;;;;5118622;27;20076;-64
2020/12/15 05:42:09;;;;;;;1.65;0.98;;;20.60;49.40;;;;;;5104389;28;20185;-64
2020/12/15 05:44:37;;;;;;;1.60;1.00;;;20.60;49.40;;;;;;5125840;27;20051;-64
2020/12/15 05:47:05;;;;;;;1.73;1.10;;;20.50;49.40;;;;;;5124175;27;20050;-65
2020/12/15 05:49:32;;;;;;;1.40;1.00;;;20.60;49.40;;;;;;5127863;27;20446;-65
2020/12/15 05:51:59;;;;;;;1.30;1.00;;;20.50;49.40;;;;;;5114093;27;20466;-65
2020/12/15 05:54:26;;;;;;;1.85;1.00;;;20.50;49.40;;;;;;5102903;27;20034;-64
2020/12/15 05:57:05;;;;;;;1.20;0.80;;;20.50;49.40;;;;;;5116173;27;20031;-64
2020/12/15 05:59:30;;;;;;;1.30;0.90;;;20.60;49.50;;;;;;5107975;28;20399;-64
2020/12/15 06:02:08;;;;;;;1.05;0.82;;;20.50;49.50;;;;;;5118965;27;20098;-66
2020/12/15 06:04:36;;;;;;;1.73;0.90;;;20.50;49.50;;;;;;5126536;27;20038;-66
2020/12/15 06:07:02;;;;;;;2.28;1.38;;;20.50;49.50;;;;;;5114003;27;20028;-66
2020/12/15 06:09:29;;;;;;;1.60;1.00;;;20.50;49.50;;;;;;5117498;27;20031;-64
2020/12/15 06:11:55;;;;;;;1.50;1.10;;;20.50;49.50;;;;;;5115850;27;20102;-66
2020/12/15 06:14:23;;;;;;;1.83;1.10;;;20.50;49.60;;;;;;5115805;27;20106;-66
2020/12/15 06:16:49;;;;;;;1.52;1.00;;;20.50;50.10;;;;;;5117847;27;20111;-66
2020/12/15 06:19:17;;;;;;;1.35;0.95;;;20.50;49.60;;;;;;5119637;27;20110;-65
2020/12/15 06:21:48;;;;;;;2.22;1.13;;;20.50;49.60;;;;;;5110683;27;20038;-66
2020/12/15 06:24:26;;;;;;;2.67;1.33;;;20.50;49.70;;;;;;5098041;27;20047;-66
2020/12/15 06:27:00;;;;;;;1.90;1.05;;;20.50;49.70;;;;;;5114801;27;20027;-66
2020/12/15 06:29:35;;;;;;;2.22;1.13;;;20.50;49.70;;;;;;5098547;27;20113;-65
2020/12/15 06:32:07;;;;;;;1.70;1.10;;;20.50;49.70;;;;;;5099446;28;20036;-66
2020/12/15 06:34:32;;;;;;;1.83;1.20;;;20.50;49.70;;;;;;5118740;27;20027;-66
2020/12/15 06:36:59;;;;;;;1.80;0.90;;;20.50;49.80;;;;;;5111117;27;20469;-66
2020/12/15 06:39:27;;;;;;;1.88;1.10;;;20.40;49.70;;;;;;5138964;27;20065;-66
2020/12/15 06:42:12;;;;;;;1.95;1.10;;;20.50;49.80;;;;;;5109598;27;20038;-66
2020/12/15 06:44:38;;;;;;;1.75;1.20;;;20.50;49.80;;;;;;5119055;27;20031;-66
2020/12/15 06:47:04;;;;;;;3.13;1.33;;;20.40;49.80;;;;;;5109630;27;20480;-67
2020/12/15 06:49:33;;;;;;;2.58;1.20;;;20.50;49.80;;;;;;5106590;27;20054;-68
2020/12/15 06:52:03;;;;;;;2.45;1.30;;;20.40;49.80;;;;;;5114295;27;20027;-67
2020/12/15 06:54:30;;;;;;;4.75;1.40;;;20.50;50.50;;;;;;5115389;27;20038;-65
2020/12/15 06:57:04;;;;;;;2.35;1.50;;;20.60;51.30;;;;;;5126215;27;20019;-65
2020/12/15 06:59:35;;;;;;;2.70;1.40;;;20.90;51.30;;;;;;5120918;27;20414;-65
2020/12/15 07:02:08;;;;;;;2.58;1.55;;;21.10;51.40;;;;;;5112219;27;20369;-65
2020/12/15 07:04:43;;;;;;;2.75;1.48;;;21.30;51.20;;;;;;5126817;27;20051;-65
2020/12/15 07:07:09;;;;;;;1.40;0.95;;;21.40;50.60;;;;;;5123491;27;20069;-65
2020/12/15 07:09:35;;;;;;;2.92;1.27;;;21.30;50.90;;;;;;5109480;27;20099;-65
2020/12/15 07:12:10;;;;;;;2.60;1.40;;;21.30;50.50;;;;;;5111349;27;20023;-66
2020/12/15 07:14:36;;;;;;;2.70;1.30;;;21.30;51.30;;;;;;5124600;27;20110;-65
2020/12/15 07:17:02;;;;;;;2.10;1.17;;;21.40;51.70;;;;;;5106787;27;20123;-65
2020/12/15 07:19:28;;;;;;;1.50;0.85;;;21.50;50.80;;;;;;5115214;27;20055;-65
2020/12/15 07:21:53;;;;;;;1.48;0.90;;;21.50;50.80;;;;;;5128428;27;20031;-66
2020/12/15 07:24:19;;;;;;;1.70;1.10;;;21.40;50.90;;;;;;5111433;27;20031;-66
2020/12/15 07:26:45;;;;;;;2.85;1.30;;;21.50;51.20;;;;;;5121471;27;20034;-66
2020/12/15 07:29:11;;;;;;;1.75;1.10;;;21.60;51.40;;;;;;5123416;27;20045;-65
2020/12/15 07:31:37;;;;;;;1.75;0.98;;;21.70;50.90;;;;;;5103387;28;20031;-64
2020/12/15 07:34:14;;;;;;;2.45;1.00;;;21.70;50.80;;;;;;5120449;27;20481;-64
2020/12/15 07:36:42;;;;;;;1.58;0.90;;;21.70;51.00;;;;;;5113255;27;20042;-65
2020/12/15 07:39:09;;;;;;;2.15;1.10;;;21.70;50.90;;;;;;5116779;27;20027;-65
2020/12/15 07:41:37;;;;;;;1.30;0.90;;;21.90;51.50;;;;;;5127154;27;20184;-66
2020/12/15 07:44:11;;;;;;;1.30;0.93;;;22.00;50.90;;;;;;5109020;27;20024;-65
2020/12/15 07:46:44;;;;;;;1.35;0.90;;;22.00;50.90;;;;;;5113654;27;20030;-65
2020/12/15 07:49:09;;;;;;;1.58;0.90;;;22.00;50.90;;;;;;5113125;27;20185;-66
2020/12/15 07:51:38;;;;;;;2.13;0.90;;;22.00;51.00;;;;;;5109810;27;20439;-65
2020/12/15 07:54:05;;;;;;;1.63;0.90;;;22.10;51.20;;;;;;5105542;27;20038;-65
2020/12/15 07:56:31;;;;;;;2.00;0.95;;;22.30;50.90;;;;;;5109706;27;20036;-65
2020/12/15 07:58:58;;;;;;;1.05;0.90;;;22.30;50.60;;;;;;5085904;28;20042;-65
2020/12/15 08:01:29;;;;;;;1.40;0.93;;;22.30;50.70;;;;;;5121192;27;20076;-66
2020/12/15 08:04:09;;;;;;;2.85;1.00;;;22.30;50.70;;;;;;5119013;27;20106;-66
2020/12/15 08:06:38;;;;;;;1.38;0.90;;;22.30;50.80;;;;;;5103958;27;20439;-65
2020/12/15 08:09:05;;;;;;;1.37;0.87;;;22.40;51.10;;;;;;5105104;27;20437;-65
2020/12/15 08:11:31;;;;;;;1.70;0.90;;;22.60;50.60;;;;;;5105541;27;20147;-65
2020/12/15 08:13:57;;;;;;;1.63;0.90;;;22.60;50.50;;;;;;5097015;27;20485;-66
2020/12/15 08:16:25;;;;;;;1.67;1.00;;;22.60;50.50;;;;;;5109043;27;20080;-64
2020/12/15 08:19:00;;;;;;;1.40;1.00;;;22.50;49.80;;;;;;5114426;27;20046;-65
2020/12/15 08:21:50;;;;;;;2.03;1.17;;;22.50;48.40;;;;;;5123377;27;20506;-65
2020/12/15 08:24:21;;;;;;;;;;;22.60;47.90;;;;;;5111358;28;20562;-64
2020/12/15 08:26:47;;;;;;;1.42;1.00;;;22.60;48.20;;;;;;5104074;28;19918;-66
2020/12/15 08:29:14;;;;;;;1.55;1.00;;;22.60;48.60;;;;;;5106866;28;20080;-66
2020/12/15 08:31:42;;;;;;;2.53;1.20;;;22.60;48.90;;;;;;5109638;28;20095;-66
2020/12/15 08:34:18;;;;;;;2.55;1.40;;;22.60;49.00;;;;;;5122081;28;20046;-66
2020/12/15 08:36:50;;;;;;;1.73;1.20;;;22.70;49.30;;;;;;5108892;28;20024;-65
2020/12/15 08:39:22;;;;;;;1.55;0.90;;;22.80;49.50;;;;;;5113662;28;20043;-65
2020/12/15 08:41:53;;;;;;;1.55;1.02;;;22.80;49.50;;;;;;5107130;27;20064;-66
2020/12/15 08:44:19;;;;;;;1.50;0.93;;;22.90;49.50;;;;;;5119117;28;20023;-65
2020/12/15 08:46:46;;;;;;;1.50;1.00;;;22.90;49.80;;;;;;5113622;28;20554;-66
2020/12/15 08:49:16;;;;;;;1.75;1.00;;;22.80;49.90;;;;;;5116790;27;20031;-66
2020/12/15 08:51:50;;;;;;;1.30;0.90;;;23.00;50.00;;;;;;5119555;28;20015;-66
2020/12/15 08:54:17;;;;;;;1.67;1.00;;;23.10;50.00;;;;;;5124680;28;20023;-65
2020/12/15 08:56:43;;;;;;;1.33;0.93;;;23.10;50.10;;;;;;5105239;28;20161;-65
2020/12/15 08:59:13;;;;;;;1.30;0.90;;;23.10;50.00;;;;;;5107451;28;20024;-65
2020/12/15 09:01:40;;;;;;;1.35;0.90;;;23.10;50.10;;;;;;5111432;28;20031;-66
2020/12/15 09:04:06;;;;;;;1.23;0.95;;;23.10;49.80;;;;;;5116930;27;20133;-65
2020/12/15 09:06:36;;;;;;;1.75;0.88;;;23.10;49.90;;;;;;5105623;28;20073;-66
2020/12/15 09:09:04;;;;;;;2.55;1.13;;;23.10;50.00;;;;;;5084453;28;20081;-65
2020/12/15 09:11:29;;;;;;;1.35;0.90;;;23.10;50.00;;;;;;5116950;27;20028;-66
2020/12/15 09:13:56;;;;;;;1.77;1.00;;;23.20;50.00;;;;;;5132894;27;20102;-66
2020/12/15 09:16:40;;;;;;;1.42;0.93;;;23.20;50.10;;;;;;5129823;27;20263;-65
2020/12/15 09:19:22;;;;;;;1.15;0.90;;;23.20;50.10;;;;;;5096943;27;20695;-66
2020/12/15 09:22:08;;;;;;;1.60;0.90;;;23.20;50.10;;;;;;5110554;27;20122;-66
2020/12/15 09:24:41;;;;;;;0.95;0.75;;;23.20;50.00;;;;;;5124636;27;20088;-66
2020/12/15 09:27:16;;;;;;;2.00;1.00;;;23.20;50.00;;;;;;5127409;27;20094;-65
2020/12/15 09:29:41;;;;;;;1.13;0.90;;;23.30;50.20;;;;;;5128815;27;20033;-65
2020/12/15 09:32:07;;;;;;;1.23;0.90;;;23.30;50.20;;;;;;5119549;27;20095;-66
2020/12/15 09:34:33;;;;;;;1.40;0.90;;;23.30;50.10;;;;;;5119318;27;20023;-65
2020/12/15 09:36:59;;;;;;;1.30;0.82;;;23.30;50.10;;;;;;5114021;27;20061;-64
2020/12/15 09:39:27;;;;;;;1.40;0.90;;;23.30;50.10;;;;;;5117560;27;20466;-65
2020/12/15 09:41:53;;;;;;;1.20;0.70;;;23.40;50.30;;;;;;5113492;27;20438;-66
2020/12/15 09:44:19;;;;;;;1.50;0.93;;;23.40;50.30;;;;;;5114079;27;20034;-66
2020/12/15 09:46:44;;;;;;;1.48;0.90;;;23.40;50.30;;;;;;5106640;28;20106;-66
2020/12/15 09:49:10;;;;;;;1.30;0.90;;;23.40;50.40;;;;;;5124689;27;20055;-63
2020/12/15 09:51:35;;;;;;;1.20;0.80;;;23.40;50.50;;;;;;5121467;27;20031;-65
2020/12/15 09:54:01;;;;;;;1.15;0.77;;;23.40;50.40;;;;;;5118623;27;20031;-66
2020/12/15 09:56:28;;;;;;;1.60;0.90;;;23.50;50.40;;;;;;5113672;27;20359;-66
2020/12/15 09:58:54;;;;;;;1.67;1.00;;;23.50;50.30;;;;;;5109764;27;20484;-65
2020/12/15 10:01:20;;;;;;;1.52;0.90;;;23.50;50.40;;;;;;5109852;27;20039;-65
2020/12/15 10:03:46;;;;;;;1.27;0.90;;;23.50;50.50;;;;;;5106553;28;20055;-65
2020/12/15 10:06:16;;;;;;;1.25;0.80;;;23.50;50.30;;;;;;5126736;27;20051;-65
2020/12/15 10:08:41;;;;;;;1.65;0.70;;;23.60;50.30;;;;;;5112453;27;20035;-65
2020/12/15 10:11:07;;;;;;;1.23;0.93;;;23.60;50.50;;;;;;5113657;27;20023;-66
2020/12/15 10:13:33;;;;;;;1.15;0.80;;;23.60;50.50;;;;;;5099362;27;20106;-65
2020/12/15 10:15:58;;;;;;;1.10;0.75;;;23.60;50.40;;;;;;5127472;27;20509;-66
2020/12/15 10:18:24;;;;;;;1.27;0.90;;;23.60;50.50;;;;;;5120183;27;20465;-66
2020/12/15 10:20:49;;;;;;;1.35;0.80;;;23.60;50.50;;;;;;5116829;27;20216;-67
2020/12/15 10:23:15;;;;;;;1.17;0.93;;;23.70;50.70;;;;;;5132916;27;20023;-66
2020/12/15 10:25:42;;;;;;;1.77;1.08;;;23.60;48.80;;;;;;5098840;27;20027;-65
2020/12/15 10:28:09;;;;;;;1.85;1.08;;;23.60;47.70;;;;;;5107090;27;20023;-65
2020/12/15 10:30:35;;;;;;;1.88;1.10;;;23.60;47.30;;;;;;5112386;27;20016;-66
2020/12/15 10:33:01;;;;;;;1.45;0.90;;;23.60;46.80;;;;;;5110138;27;20062;-65
2020/12/15 10:35:26;;;;;;;1.30;0.93;;;23.50;47.10;;;;;;5107871;27;20023;-65
2020/12/15 10:37:52;;;;;;;2.05;0.90;;;23.50;46.60;;;;;;5120782;27;20318;-65
2020/12/15 10:40:17;;;;;;;1.50;1.05;;;23.50;46.70;;;;;;5113711;27;20039;-65
2020/12/15 10:42:44;;;;;;;1.13;0.90;;;23.50;46.40;;;;;;5109778;27;20457;-64
2020/12/15 10:45:09;;;;;;;1.60;1.10;;;23.40;46.40;;;;;;5090282;27;20500;-64
2020/12/15 10:47:35;;;;;;;2.17;1.10;;;23.40;46.50;;;;;;5118275;27;20024;-65
2020/12/15 10:50:01;;;;;;;2.25;1.30;;;23.40;46.50;;;;;;5112187;27;20027;-65
2020/12/15 10:52:26;;;;;;;1.70;1.08;;;23.40;46.40;;;;;;5115351;27;20042;-64
2020/12/15 10:54:52;;;;;;;1.50;1.10;;;23.40;46.70;;;;;;5106775;27;20412;-65
2020/12/15 10:57:18;;;;;;;1.52;0.90;;;23.40;47.00;;;;;;5125750;27;20031;-65
2020/12/15 10:59:43;;;;;;;2.17;0.85;;;23.40;47.20;;;;;;5119406;27;20055;-65
2020/12/15 11:02:09;;;;;;;1.50;0.88;;;23.40;47.50;;;;;;5109448;27;20026;-65
2020/12/15 11:04:36;;;;;;;1.40;1.08;;;23.40;47.60;;;;;;5115414;27;20244;-65
2020/12/15 11:07:01;;;;;;;1.58;1.00;;;23.50;48.00;;;;;;5125771;27;20034;-65
2020/12/15 11:09:27;;;;;;;1.42;1.00;;;23.50;48.10;;;;;;5116960;27;20035;-64
2020/12/15 11:11:52;;;;;;;2.72;1.00;;;23.50;48.30;;;;;;5112085;27;20390;-64
2020/12/15 11:14:18;;;;;;;1.40;0.98;;;23.60;48.30;;;;;;5119110;27;20134;-64
2020/12/15 11:16:45;;;;;;;2.05;1.00;;;23.60;48.40;;;;;;5110749;27;20449;-64
2020/12/15 11:19:11;;;;;;;1.23;0.90;;;23.60;48.70;;;;;;5108391;27;20478;-64
2020/12/15 11:21:36;;;;;;;1.27;0.95;;;23.60;48.80;;;;;;5122921;27;20129;-64
2020/12/15 11:24:02;;;;;;;0.90;0.80;;;23.60;48.90;;;;;;5115759;27;20069;-64
2020/12/15 11:26:27;;;;;;;0.98;0.82;;;23.70;49.00;;;;;;5126172;27;20023;-64
2020/12/15 11:28:53;;;;;;;1.10;0.90;;;23.70;48.80;;;;;;5118728;27;20111;-64
2020/12/15 11:31:19;;;;;;;1.70;1.00;;;23.70;48.70;;;;;;5097114;28;20078;-65
2020/12/15 11:33:45;;;;;;;0.77;0.77;;;23.70;49.30;;;;;;5115546;27;20112;-64
2020/12/15 11:36:11;;;;;;;1.15;0.90;;;23.70;49.50;;;;;;5107295;27;20068;-64
2020/12/15 11:38:39;;;;;;;1.35;0.90;;;23.80;49.60;;;;;;5118683;27;20364;-65
2020/12/15 11:41:06;;;;;;;1.40;0.95;;;23.80;49.70;;;;;;5101109;27;20027;-64
2020/12/15 11:43:31;;;;;;;1.80;0.93;;;23.80;49.50;;;;;;5126123;27;20039;-63
2020/12/15 11:45:57;;;;;;;1.20;0.80;;;23.80;49.50;;;;;;5112512;27;20110;-64
2020/12/15 11:48:23;;;;;;;1.38;0.90;;;23.80;49.70;;;;;;5094545;27;20067;-62
2020/12/15 11:50:48;;;;;;;0.82;0.80;;;23.80;49.40;;;;;;5116243;27;20027;-62
2020/12/15 11:53:14;;;;;;;1.20;0.82;;;23.80;49.40;;;;;;5117367;27;20077;-62
2020/12/15 11:55:40;;;;;;;1.90;1.38;;;23.80;49.30;;;;;;5093796;27;20033;-62
2020/12/15 11:58:05;;;;;;;4.22;3.42;;;23.80;44.50;;;;;;5117824;27;20043;-63
2020/12/15 12:00:31;;;;;;;4.57;3.75;;;23.60;37.90;;;;;;5116933;27;20039;-62
2020/12/15 12:02:56;;;;;;;4.95;3.80;;;23.40;36.60;;;;;;5107973;27;20365;-63
2020/12/15 12:05:22;;;;;;;3.83;3.35;;;23.10;36.70;;;;;;5104755;27;20084;-62
2020/12/15 12:07:48;;;;;;;4.20;3.47;;;23.00;37.00;;;;;;5126315;27;20068;-62
2020/12/15 12:10:14;;;;;;;4.40;3.88;;;22.90;36.40;;;;;;5122742;27;20114;-63
2020/12/15 12:12:40;;;;;;;5.57;3.47;;;22.70;35.80;;;;;;5095197;28;20035;-63
2020/12/15 12:15:06;;;;;;;4.60;3.60;;;22.60;36.30;;;;;;5123128;27;20029;-62
2020/12/15 12:17:31;;;;;;;4.57;3.80;;;22.50;36.30;;;;;;5117915;27;20032;-62
2020/12/15 12:19:57;;;;;;;4.63;2.60;;;22.40;37.70;;;;;;5129477;27;20106;-63
2020/12/15 12:22:22;;;;;;;3.80;2.60;;;22.50;39.30;;;;;;5115254;27;20024;-63
2020/12/15 12:24:48;;;;;;;3.03;2.40;;;22.60;40.40;;;;;;5126589;27;20084;-63
2020/12/15 12:27:14;;;;;;;3.38;2.40;;;22.70;41.10;;;;;;5120933;27;20028;-63
2020/12/15 12:29:39;;;;;;;3.25;2.45;;;22.80;41.70;;;;;;5121437;27;20107;-63
2020/12/15 12:32:06;;;;;;;3.47;2.58;;;22.90;42.20;;;;;;5108376;27;20080;-63
2020/12/15 12:34:33;;;;;;;2.67;2.10;;;23.00;42.70;;;;;;5108831;28;20039;-62
2020/12/15 12:36:59;;;;;;;4.05;2.22;;;23.00;43.00;;;;;;5111953;27;20110;-63
2020/12/15 12:39:25;;;;;;;2.90;2.33;;;23.00;43.30;;;;;;5098798;28;20057;-63
2020/12/15 12:41:52;;;;;;;3.28;2.35;;;23.10;43.80;;;;;;5120355;27;20422;-63
2020/12/15 12:44:19;;;;;;;3.03;2.05;;;23.10;44.10;;;;;;5110890;28;20061;-63
2020/12/15 12:46:48;;;;;;;2.90;2.22;;;23.10;44.30;;;;;;5115505;27;20512;-63
2020/12/15 12:49:14;;;;;;;2.85;2.15;;;23.20;44.70;;;;;;5107532;28;20035;-63